sensor_id;sensor_type;location;lat;lon;timestamp;P1;durP1;ratioP1;P2;durP2;ratioP2
29534;SDS011;16475;52.650;8.116;2023-07-29T00:00:19;14.70;;;4.37;;
29534;SDS011;16475;52.650;8.116;2023-07-29T00:02:44;10.83;;;5.47;;
29534;SDS011;16475;52.650;8.116;2023-07-29T00:05:10;13.83;;;4.70;;
29534;SDS011;16475;52.650;8.116;2023-07-29T00:07:36;9.47;;;5.20;;
29534;SDS011;16475;52.650;8.116;2023-07-29T00:10:01;7.80;;;6.03;;
29534;SDS011;16475;52.650;8.116;2023-07-29T00:12:28;12.10;;;5.13;;
29534;SDS011;16475;52.650;8.116;2023-07-29T00:14:53;10.60;;;4.93;;
29534;SDS011;16475;52.650;8.116;2023-07-29T00:17:19;9.40;;;5.80;;
29534;SDS011;16475;52.650;8.116;2023-07-29T00:19:45;10.93;;;5.90;;
29534;SDS011;16475;52.650;8.116;2023-07-29T00:22:10;14.30;;;4.97;;
29534;SDS011;16475;52.650;8.116;2023-07-29T00:24:36;17.33;;;6.60;;
29534;SDS011;16475;52.650;8.116;2023-07-29T00:27:01;37.37;;;8.07;;
29534;SDS011;16475;52.650;8.116;2023-07-29T00:29:26;25.63;;;6.60;;
29534;SDS011;16475;52.650;8.116;2023-07-29T00:31:52;5.70;;;4.17;;
29534;SDS011;16475;52.650;8.116;2023-07-29T00:34:17;13.87;;;6.83;;
29534;SDS011;16475;52.650;8.116;2023-07-29T00:36:44;6.77;;;4.27;;
29534;SDS011;16475;52.650;8.116;2023-07-29T00:39:12;13.90;;;6.37;;
29534;SDS011;16475;52.650;8.116;2023-07-29T00:41:37;6.60;;;5.80;;
29534;SDS011;16475;52.650;8.116;2023-07-29T00:44:03;7.20;;;5.00;;
29534;SDS011;16475;52.650;8.116;2023-07-29T00:46:28;10.37;;;5.93;;
29534;SDS011;16475;52.650;8.116;2023-07-29T00:48:54;9.73;;;6.23;;
29534;SDS011;16475;52.650;8.116;2023-07-29T00:51:20;6.97;;;5.13;;
29534;SDS011;16475;52.650;8.116;2023-07-29T00:53:45;7.30;;;4.97;;
29534;SDS011;16475;52.650;8.116;2023-07-29T00:56:11;7.67;;;4.00;;
29534;SDS011;16475;52.650;8.116;2023-07-29T00:58:37;5.67;;;4.37;;
29534;SDS011;16475;52.650;8.116;2023-07-29T01:01:02;8.00;;;3.50;;
29534;SDS011;16475;52.650;8.116;2023-07-29T01:03:27;8.50;;;4.90;;
29534;SDS011;16475;52.650;8.116;2023-07-29T01:06:01;6.40;;;5.33;;
29534;SDS011;16475;52.650;8.116;2023-07-29T01:08:46;5.53;;;4.00;;
29534;SDS011;16475;52.650;8.116;2023-07-29T01:13:53;5.80;;;4.70;;
29534;SDS011;16475;52.650;8.116;2023-07-29T01:16:34;3.93;;;3.60;;
29534;SDS011;16475;52.650;8.116;2023-07-29T01:19:06;5.00;;;4.27;;
29534;SDS011;16475;52.650;8.116;2023-07-29T01:21:35;5.53;;;4.63;;
29534;SDS011;16475;52.650;8.116;2023-07-29T01:24:01;6.53;;;4.67;;
29534;SDS011;16475;52.650;8.116;2023-07-29T01:26:26;6.23;;;4.80;;
29534;SDS011;16475;52.650;8.116;2023-07-29T01:28:54;7.93;;;3.90;;
29534;SDS011;16475;52.650;8.116;2023-07-29T01:31:26;3.63;;;3.33;;
29534;SDS011;16475;52.650;8.116;2023-07-29T01:33:55;31.73;;;6.47;;
29534;SDS011;16475;52.650;8.116;2023-07-29T01:36:23;8.80;;;5.47;;
29534;SDS011;16475;52.650;8.116;2023-07-29T01:38:52;8.43;;;4.63;;
29534;SDS011;16475;52.650;8.116;2023-07-29T01:41:19;2.80;;;2.70;;
29534;SDS011;16475;52.650;8.116;2023-07-29T01:43:45;6.80;;;3.73;;
29534;SDS011;16475;52.650;8.116;2023-07-29T01:46:11;7.80;;;3.90;;
29534;SDS011;16475;52.650;8.116;2023-07-29T01:48:37;4.27;;;3.90;;
29534;SDS011;16475;52.650;8.116;2023-07-29T01:51:03;6.77;;;4.10;;
29534;SDS011;16475;52.650;8.116;2023-07-29T01:53:29;8.97;;;4.30;;
29534;SDS011;16475;52.650;8.116;2023-07-29T01:55:54;3.73;;;3.43;;
29534;SDS011;16475;52.650;8.116;2023-07-29T01:58:21;4.73;;;3.43;;
29534;SDS011;16475;52.650;8.116;2023-07-29T02:00:47;12.23;;;4.23;;
29534;SDS011;16475;52.650;8.116;2023-07-29T02:03:12;3.03;;;2.80;;
29534;SDS011;16475;52.650;8.116;2023-07-29T02:05:38;15.73;;;3.60;;
29534;SDS011;16475;52.650;8.116;2023-07-29T02:08:03;3.70;;;3.40;;
29534;SDS011;16475;52.650;8.116;2023-07-29T02:10:28;3.00;;;2.70;;
29534;SDS011;16475;52.650;8.116;2023-07-29T02:12:54;10.77;;;4.57;;
29534;SDS011;16475;52.650;8.116;2023-07-29T02:15:19;5.00;;;3.73;;
29534;SDS011;16475;52.650;8.116;2023-07-29T02:17:45;5.37;;;4.33;;
29534;SDS011;16475;52.650;8.116;2023-07-29T02:20:11;3.63;;;3.10;;
29534;SDS011;16475;52.650;8.116;2023-07-29T02:22:36;3.10;;;2.80;;
29534;SDS011;16475;52.650;8.116;2023-07-29T02:25:02;3.57;;;3.30;;
29534;SDS011;16475;52.650;8.116;2023-07-29T02:27:27;4.00;;;3.70;;
29534;SDS011;16475;52.650;8.116;2023-07-29T02:29:53;6.70;;;3.90;;
29534;SDS011;16475;52.650;8.116;2023-07-29T02:32:19;3.53;;;2.90;;
29534;SDS011;16475;52.650;8.116;2023-07-29T02:34:45;3.83;;;3.40;;
29534;SDS011;16475;52.650;8.116;2023-07-29T02:37:10;5.43;;;4.43;;
29534;SDS011;16475;52.650;8.116;2023-07-29T02:39:36;4.67;;;4.10;;
29534;SDS011;16475;52.650;8.116;2023-07-29T02:42:01;3.03;;;2.77;;
29534;SDS011;16475;52.650;8.116;2023-07-29T02:44:27;9.70;;;2.97;;
29534;SDS011;16475;52.650;8.116;2023-07-29T02:46:52;22.53;;;4.13;;
29534;SDS011;16475;52.650;8.116;2023-07-29T02:49:19;9.30;;;3.60;;
29534;SDS011;16475;52.650;8.116;2023-07-29T02:51:45;4.03;;;2.70;;
29534;SDS011;16475;52.650;8.116;2023-07-29T02:54:10;4.93;;;4.63;;
29534;SDS011;16475;52.650;8.116;2023-07-29T02:56:35;5.13;;;2.60;;
29534;SDS011;16475;52.650;8.116;2023-07-29T02:59:01;3.03;;;2.83;;
29534;SDS011;16475;52.650;8.116;2023-07-29T03:01:26;17.77;;;5.00;;
29534;SDS011;16475;52.650;8.116;2023-07-29T03:03:52;3.17;;;2.93;;
29534;SDS011;16475;52.650;8.116;2023-07-29T03:06:17;8.63;;;4.10;;
29534;SDS011;16475;52.650;8.116;2023-07-29T03:08:44;5.90;;;2.63;;
29534;SDS011;16475;52.650;8.116;2023-07-29T03:11:10;4.63;;;3.30;;
29534;SDS011;16475;52.650;8.116;2023-07-29T03:13:37;3.83;;;3.40;;
29534;SDS011;16475;52.650;8.116;2023-07-29T03:18:32;3.57;;;3.17;;
29534;SDS011;16475;52.650;8.116;2023-07-29T03:20:57;5.10;;;4.13;;
29534;SDS011;16475;52.650;8.116;2023-07-29T03:23:22;3.87;;;3.50;;
29534;SDS011;16475;52.650;8.116;2023-07-29T03:25:48;4.13;;;3.80;;
29534;SDS011;16475;52.650;8.116;2023-07-29T03:28:16;7.63;;;3.87;;
29534;SDS011;16475;52.650;8.116;2023-07-29T03:30:41;8.97;;;5.90;;
29534;SDS011;16475;52.650;8.116;2023-07-29T03:33:07;5.40;;;4.53;;
29534;SDS011;16475;52.650;8.116;2023-07-29T03:35:32;8.43;;;4.67;;
29534;SDS011;16475;52.650;8.116;2023-07-29T03:37:58;4.37;;;3.70;;
29534;SDS011;16475;52.650;8.116;2023-07-29T03:40:23;3.47;;;3.17;;
29534;SDS011;16475;52.650;8.116;2023-07-29T03:42:48;10.30;;;3.80;;
29534;SDS011;16475;52.650;8.116;2023-07-29T03:45:14;5.30;;;3.83;;
29534;SDS011;16475;52.650;8.116;2023-07-29T03:47:39;10.07;;;5.13;;
29534;SDS011;16475;52.650;8.116;2023-07-29T03:50:05;10.00;;;3.93;;
29534;SDS011;16475;52.650;8.116;2023-07-29T03:52:30;4.00;;;3.70;;
29534;SDS011;16475;52.650;8.116;2023-07-29T03:54:56;15.93;;;4.03;;
29534;SDS011;16475;52.650;8.116;2023-07-29T03:57:21;3.33;;;3.13;;
29534;SDS011;16475;52.650;8.116;2023-07-29T03:59:47;11.30;;;5.23;;
29534;SDS011;16475;52.650;8.116;2023-07-29T04:02:12;5.17;;;3.80;;
29534;SDS011;16475;52.650;8.116;2023-07-29T04:04:37;5.57;;;2.93;;
29534;SDS011;16475;52.650;8.116;2023-07-29T04:07:03;6.77;;;4.70;;
29534;SDS011;16475;52.650;8.116;2023-07-29T04:09:29;44.90;;;4.67;;
29534;SDS011;16475;52.650;8.116;2023-07-29T04:11:54;5.03;;;4.17;;
29534;SDS011;16475;52.650;8.116;2023-07-29T04:14:20;2.90;;;2.80;;
29534;SDS011;16475;52.650;8.116;2023-07-29T04:16:45;4.97;;;4.30;;
29534;SDS011;16475;52.650;8.116;2023-07-29T04:19:10;17.93;;;4.90;;
29534;SDS011;16475;52.650;8.116;2023-07-29T04:21:36;6.13;;;4.73;;
29534;SDS011;16475;52.650;8.116;2023-07-29T04:24:01;4.87;;;4.43;;
29534;SDS011;16475;52.650;8.116;2023-07-29T04:26:27;9.53;;;3.83;;
29534;SDS011;16475;52.650;8.116;2023-07-29T04:28:52;20.60;;;4.50;;
29534;SDS011;16475;52.650;8.116;2023-07-29T04:31:18;5.13;;;4.30;;
29534;SDS011;16475;52.650;8.116;2023-07-29T04:33:43;7.27;;;3.33;;
29534;SDS011;16475;52.650;8.116;2023-07-29T04:36:09;7.60;;;4.10;;
29534;SDS011;16475;52.650;8.116;2023-07-29T04:38:34;3.80;;;3.47;;
29534;SDS011;16475;52.650;8.116;2023-07-29T04:41:02;8.17;;;4.77;;
29534;SDS011;16475;52.650;8.116;2023-07-29T04:43:28;5.80;;;3.67;;
29534;SDS011;16475;52.650;8.116;2023-07-29T04:45:55;7.27;;;5.37;;
29534;SDS011;16475;52.650;8.116;2023-07-29T04:48:20;5.10;;;4.43;;
29534;SDS011;16475;52.650;8.116;2023-07-29T04:50:46;7.33;;;4.90;;
29534;SDS011;16475;52.650;8.116;2023-07-29T04:53:11;5.83;;;5.07;;
29534;SDS011;16475;52.650;8.116;2023-07-29T04:55:36;7.73;;;5.20;;
29534;SDS011;16475;52.650;8.116;2023-07-29T04:58:02;11.63;;;5.63;;
29534;SDS011;16475;52.650;8.116;2023-07-29T05:00:27;6.03;;;3.80;;
29534;SDS011;16475;52.650;8.116;2023-07-29T05:02:52;7.73;;;4.37;;
29534;SDS011;16475;52.650;8.116;2023-07-29T05:05:18;6.20;;;5.60;;
29534;SDS011;16475;52.650;8.116;2023-07-29T05:07:43;4.43;;;4.07;;
29534;SDS011;16475;52.650;8.116;2023-07-29T05:10:09;5.20;;;4.67;;
29534;SDS011;16475;52.650;8.116;2023-07-29T05:12:34;7.00;;;4.70;;
29534;SDS011;16475;52.650;8.116;2023-07-29T05:14:59;8.70;;;5.70;;
29534;SDS011;16475;52.650;8.116;2023-07-29T05:17:25;6.13;;;4.33;;
29534;SDS011;16475;52.650;8.116;2023-07-29T05:19:50;12.70;;;5.23;;
29534;SDS011;16475;52.650;8.116;2023-07-29T05:22:16;10.10;;;6.07;;
29534;SDS011;16475;52.650;8.116;2023-07-29T05:24:41;5.83;;;5.10;;
29534;SDS011;16475;52.650;8.116;2023-07-29T05:27:06;56.43;;;7.20;;
29534;SDS011;16475;52.650;8.116;2023-07-29T05:29:33;5.90;;;5.03;;
29534;SDS011;16475;52.650;8.116;2023-07-29T05:31:58;7.50;;;5.50;;
29534;SDS011;16475;52.650;8.116;2023-07-29T05:34:24;5.40;;;4.87;;
29534;SDS011;16475;52.650;8.116;2023-07-29T05:36:49;10.37;;;5.83;;
29534;SDS011;16475;52.650;8.116;2023-07-29T05:39:15;10.70;;;6.57;;
29534;SDS011;16475;52.650;8.116;2023-07-29T05:41:40;6.17;;;4.80;;
29534;SDS011;16475;52.650;8.116;2023-07-29T05:44:05;10.70;;;6.20;;
29534;SDS011;16475;52.650;8.116;2023-07-29T05:46:31;6.17;;;5.00;;
29534;SDS011;16475;52.650;8.116;2023-07-29T05:48:56;8.07;;;7.13;;
29534;SDS011;16475;52.650;8.116;2023-07-29T05:51:21;10.90;;;7.03;;
29534;SDS011;16475;52.650;8.116;2023-07-29T05:53:47;9.50;;;6.27;;
29534;SDS011;16475;52.650;8.116;2023-07-29T05:56:12;10.60;;;6.00;;
29534;SDS011;16475;52.650;8.116;2023-07-29T05:58:37;45.27;;;7.07;;
29534;SDS011;16475;52.650;8.116;2023-07-29T06:01:03;9.60;;;6.40;;
29534;SDS011;16475;52.650;8.116;2023-07-29T06:03:29;7.40;;;6.67;;
29534;SDS011;16475;52.650;8.116;2023-07-29T06:05:55;7.77;;;5.87;;
29534;SDS011;16475;52.650;8.116;2023-07-29T06:08:21;9.20;;;7.20;;
29534;SDS011;16475;52.650;8.116;2023-07-29T06:10:46;5.50;;;5.07;;
29534;SDS011;16475;52.650;8.116;2023-07-29T06:13:11;6.13;;;5.53;;
29534;SDS011;16475;52.650;8.116;2023-07-29T06:15:37;6.90;;;5.63;;
29534;SDS011;16475;52.650;8.116;2023-07-29T06:18:02;8.87;;;6.50;;
29534;SDS011;16475;52.650;8.116;2023-07-29T06:20:28;7.90;;;6.00;;
29534;SDS011;16475;52.650;8.116;2023-07-29T06:22:54;8.27;;;5.20;;
29534;SDS011;16475;52.650;8.116;2023-07-29T06:25:19;12.03;;;6.10;;
29534;SDS011;16475;52.650;8.116;2023-07-29T06:27:45;10.80;;;6.90;;
29534;SDS011;16475;52.650;8.116;2023-07-29T06:30:10;7.83;;;5.40;;
29534;SDS011;16475;52.650;8.116;2023-07-29T06:32:35;8.43;;;6.23;;
29534;SDS011;16475;52.650;8.116;2023-07-29T06:35:01;10.13;;;6.00;;
29534;SDS011;16475;52.650;8.116;2023-07-29T06:37:27;6.07;;;5.20;;
29534;SDS011;16475;52.650;8.116;2023-07-29T06:39:52;6.50;;;4.20;;
29534;SDS011;16475;52.650;8.116;2023-07-29T06:42:18;14.10;;;5.63;;
29534;SDS011;16475;52.650;8.116;2023-07-29T06:44:43;15.87;;;6.03;;
29534;SDS011;16475;52.650;8.116;2023-07-29T06:47:10;7.73;;;5.33;;
29534;SDS011;16475;52.650;8.116;2023-07-29T06:49:36;11.87;;;3.80;;
29534;SDS011;16475;52.650;8.116;2023-07-29T06:52:01;9.40;;;5.20;;
29534;SDS011;16475;52.650;8.116;2023-07-29T06:54:26;6.03;;;4.00;;
29534;SDS011;16475;52.650;8.116;2023-07-29T06:56:52;9.70;;;5.00;;
29534;SDS011;16475;52.650;8.116;2023-07-29T06:59:18;5.77;;;4.53;;
29534;SDS011;16475;52.650;8.116;2023-07-29T07:01:43;5.37;;;4.83;;
29534;SDS011;16475;52.650;8.116;2023-07-29T07:04:09;13.03;;;3.57;;
29534;SDS011;16475;52.650;8.116;2023-07-29T07:06:34;9.20;;;4.80;;
29534;SDS011;16475;52.650;8.116;2023-07-29T07:08:59;19.97;;;5.23;;
29534;SDS011;16475;52.650;8.116;2023-07-29T07:11:25;8.73;;;5.00;;
29534;SDS011;16475;52.650;8.116;2023-07-29T07:13:50;5.67;;;4.50;;
29534;SDS011;16475;52.650;8.116;2023-07-29T07:16:15;7.73;;;5.60;;
29534;SDS011;16475;52.650;8.116;2023-07-29T07:18:41;15.00;;;5.27;;
29534;SDS011;16475;52.650;8.116;2023-07-29T07:21:06;8.40;;;4.83;;
29534;SDS011;16475;52.650;8.116;2023-07-29T07:23:31;6.47;;;4.97;;
29534;SDS011;16475;52.650;8.116;2023-07-29T07:25:57;8.83;;;6.17;;
29534;SDS011;16475;52.650;8.116;2023-07-29T07:28:22;13.63;;;6.70;;
29534;SDS011;16475;52.650;8.116;2023-07-29T07:30:47;12.57;;;6.17;;
29534;SDS011;16475;52.650;8.116;2023-07-29T07:33:13;6.83;;;5.20;;
29534;SDS011;16475;52.650;8.116;2023-07-29T07:35:38;6.73;;;4.73;;
29534;SDS011;16475;52.650;8.116;2023-07-29T07:38:03;11.10;;;5.70;;
29534;SDS011;16475;52.650;8.116;2023-07-29T07:40:30;6.77;;;5.13;;
29534;SDS011;16475;52.650;8.116;2023-07-29T07:42:56;8.80;;;5.80;;
29534;SDS011;16475;52.650;8.116;2023-07-29T07:45:21;10.17;;;5.87;;
29534;SDS011;16475;52.650;8.116;2023-07-29T07:47:47;10.23;;;4.50;;
29534;SDS011;16475;52.650;8.116;2023-07-29T07:50:13;10.77;;;6.77;;
29534;SDS011;16475;52.650;8.116;2023-07-29T07:52:39;7.63;;;4.93;;
29534;SDS011;16475;52.650;8.116;2023-07-29T07:55:05;8.93;;;5.77;;
29534;SDS011;16475;52.650;8.116;2023-07-29T07:57:30;8.63;;;5.93;;
29534;SDS011;16475;52.650;8.116;2023-07-29T07:59:55;5.10;;;4.60;;
29534;SDS011;16475;52.650;8.116;2023-07-29T08:02:21;9.57;;;6.83;;
29534;SDS011;16475;52.650;8.116;2023-07-29T08:04:47;5.03;;;4.50;;
29534;SDS011;16475;52.650;8.116;2023-07-29T08:07:12;5.77;;;4.77;;
29534;SDS011;16475;52.650;8.116;2023-07-29T08:09:39;9.27;;;6.20;;
29534;SDS011;16475;52.650;8.116;2023-07-29T08:12:04;12.73;;;5.27;;
29534;SDS011;16475;52.650;8.116;2023-07-29T08:14:30;3.23;;;3.03;;
29534;SDS011;16475;52.650;8.116;2023-07-29T08:16:55;5.77;;;4.30;;
29534;SDS011;16475;52.650;8.116;2023-07-29T08:19:20;9.00;;;3.33;;
29534;SDS011;16475;52.650;8.116;2023-07-29T08:21:46;5.00;;;4.00;;
29534;SDS011;16475;52.650;8.116;2023-07-29T08:24:12;4.23;;;3.83;;
29534;SDS011;16475;52.650;8.116;2023-07-29T08:26:37;3.27;;;2.50;;
29534;SDS011;16475;52.650;8.116;2023-07-29T08:29:03;7.73;;;2.37;;
29534;SDS011;16475;52.650;8.116;2023-07-29T08:31:28;3.10;;;2.93;;
29534;SDS011;16475;52.650;8.116;2023-07-29T08:33:53;4.63;;;2.47;;
29534;SDS011;16475;52.650;8.116;2023-07-29T08:36:19;5.23;;;2.00;;
29534;SDS011;16475;52.650;8.116;2023-07-29T08:38:44;3.60;;;2.63;;
29534;SDS011;16475;52.650;8.116;2023-07-29T08:41:19;2.50;;;2.40;;
29534;SDS011;16475;52.650;8.116;2023-07-29T08:44:01;2.50;;;2.30;;
29534;SDS011;16475;52.650;8.116;2023-07-29T08:46:32;9.00;;;1.87;;
29534;SDS011;16475;52.650;8.116;2023-07-29T08:48:58;1.83;;;1.73;;
29534;SDS011;16475;52.650;8.116;2023-07-29T08:51:24;1.60;;;1.60;;
29534;SDS011;16475;52.650;8.116;2023-07-29T08:53:50;1.87;;;1.67;;
29534;SDS011;16475;52.650;8.116;2023-07-29T08:56:16;6.43;;;1.73;;
29534;SDS011;16475;52.650;8.116;2023-07-29T08:58:42;2.00;;;1.90;;
29534;SDS011;16475;52.650;8.116;2023-07-29T09:01:08;1.00;;;1.00;;
29534;SDS011;16475;52.650;8.116;2023-07-29T09:03:33;1.47;;;1.30;;
29534;SDS011;16475;52.650;8.116;2023-07-29T09:05:59;1.40;;;1.40;;
29534;SDS011;16475;52.650;8.116;2023-07-29T09:08:25;1.47;;;1.37;;
29534;SDS011;16475;52.650;8.116;2023-07-29T09:10:51;7.60;;;1.23;;
29534;SDS011;16475;52.650;8.116;2023-07-29T09:13:17;1.30;;;1.30;;
29534;SDS011;16475;52.650;8.116;2023-07-29T09:15:43;1.07;;;0.97;;
29534;SDS011;16475;52.650;8.116;2023-07-29T09:18:09;1.40;;;1.30;;
29534;SDS011;16475;52.650;8.116;2023-07-29T09:20:45;1.80;;;1.70;;
29534;SDS011;16475;52.650;8.116;2023-07-29T09:23:12;1.50;;;1.40;;
29534;SDS011;16475;52.650;8.116;2023-07-29T09:25:38;1.00;;;1.00;;
29534;SDS011;16475;52.650;8.116;2023-07-29T09:28:11;1.07;;;1.07;;
29534;SDS011;16475;52.650;8.116;2023-07-29T09:30:39;0.80;;;0.80;;
29534;SDS011;16475;52.650;8.116;2023-07-29T09:33:06;1.00;;;1.00;;
29534;SDS011;16475;52.650;8.116;2023-07-29T09:35:32;1.10;;;1.07;;
29534;SDS011;16475;52.650;8.116;2023-07-29T09:37:59;7.03;;;2.10;;
29534;SDS011;16475;52.650;8.116;2023-07-29T09:40:25;1.17;;;1.17;;
29534;SDS011;16475;52.650;8.116;2023-07-29T09:42:51;2.53;;;1.83;;
29534;SDS011;16475;52.650;8.116;2023-07-29T09:47:47;0.93;;;0.93;;
29534;SDS011;16475;52.650;8.116;2023-07-29T09:50:12;1.40;;;1.30;;
29534;SDS011;16475;52.650;8.116;2023-07-29T09:52:39;1.10;;;1.00;;
29534;SDS011;16475;52.650;8.116;2023-07-29T09:55:05;1.00;;;1.00;;
29534;SDS011;16475;52.650;8.116;2023-07-29T09:57:31;1.57;;;1.30;;
29534;SDS011;16475;52.650;8.116;2023-07-29T09:59:57;2.83;;;1.50;;
29534;SDS011;16475;52.650;8.116;2023-07-29T10:02:23;1.20;;;1.20;;
29534;SDS011;16475;52.650;8.116;2023-07-29T10:04:50;1.30;;;1.20;;
29534;SDS011;16475;52.650;8.116;2023-07-29T10:07:17;1.47;;;1.47;;
29534;SDS011;16475;52.650;8.116;2023-07-29T10:09:42;1.20;;;1.20;;
29534;SDS011;16475;52.650;8.116;2023-07-29T10:12:09;1.20;;;1.20;;
29534;SDS011;16475;52.650;8.116;2023-07-29T10:14:34;2.50;;;1.70;;
29534;SDS011;16475;52.650;8.116;2023-07-29T10:17:00;1.10;;;1.10;;
29534;SDS011;16475;52.650;8.116;2023-07-29T10:19:26;1.40;;;1.40;;
29534;SDS011;16475;52.650;8.116;2023-07-29T10:21:52;1.77;;;1.67;;
29534;SDS011;16475;52.650;8.116;2023-07-29T10:24:22;2.07;;;1.93;;
29534;SDS011;16475;52.650;8.116;2023-07-29T10:26:53;1.40;;;1.40;;
29534;SDS011;16475;52.650;8.116;2023-07-29T10:29:21;1.97;;;1.87;;
29534;SDS011;16475;52.650;8.116;2023-07-29T10:31:48;1.97;;;1.70;;
29534;SDS011;16475;52.650;8.116;2023-07-29T10:34:17;1.77;;;1.67;;
29534;SDS011;16475;52.650;8.116;2023-07-29T10:36:43;1.70;;;1.60;;
29534;SDS011;16475;52.650;8.116;2023-07-29T10:39:10;1.57;;;1.57;;
29534;SDS011;16475;52.650;8.116;2023-07-29T10:47:11;7.40;;;1.37;;
29534;SDS011;16475;52.650;8.116;2023-07-29T10:49:40;1.90;;;1.80;;
29534;SDS011;16475;52.650;8.116;2023-07-29T10:52:06;1.60;;;1.50;;
29534;SDS011;16475;52.650;8.116;2023-07-29T10:54:31;3.13;;;1.17;;
29534;SDS011;16475;52.650;8.116;2023-07-29T10:57:17;1.10;;;1.00;;
29534;SDS011;16475;52.650;8.116;2023-07-29T10:59:58;1.63;;;1.50;;
29534;SDS011;16475;52.650;8.116;2023-07-29T11:02:31;13.00;;;1.53;;
29534;SDS011;16475;52.650;8.116;2023-07-29T11:04:57;1.53;;;1.43;;
29534;SDS011;16475;52.650;8.116;2023-07-29T11:07:23;4.00;;;2.37;;
29534;SDS011;16475;52.650;8.116;2023-07-29T11:09:53;5.30;;;1.23;;
29534;SDS011;16475;52.650;8.116;2023-07-29T11:15:26;1.30;;;1.20;;
29534;SDS011;16475;52.650;8.116;2023-07-29T11:17:53;2.23;;;2.03;;
29534;SDS011;16475;52.650;8.116;2023-07-29T11:20:23;13.97;;;1.53;;
29534;SDS011;16475;52.650;8.116;2023-07-29T11:22:56;2.00;;;1.50;;
29534;SDS011;16475;52.650;8.116;2023-07-29T11:25:23;1.00;;;1.00;;
29534;SDS011;16475;52.650;8.116;2023-07-29T11:27:50;1.37;;;1.17;;
29534;SDS011;16475;52.650;8.116;2023-07-29T11:30:17;3.40;;;1.57;;
29534;SDS011;16475;52.650;8.116;2023-07-29T11:32:43;1.10;;;1.10;;
29534;SDS011;16475;52.650;8.116;2023-07-29T11:35:10;7.20;;;1.37;;
29534;SDS011;16475;52.650;8.116;2023-07-29T11:37:38;4.40;;;1.40;;
29534;SDS011;16475;52.650;8.116;2023-07-29T11:40:04;1.20;;;1.20;;
29534;SDS011;16475;52.650;8.116;2023-07-29T11:42:32;1.00;;;1.00;;
29534;SDS011;16475;52.650;8.116;2023-07-29T11:44:58;1.50;;;1.13;;
29534;SDS011;16475;52.650;8.116;2023-07-29T11:47:24;1.23;;;1.17;;
29534;SDS011;16475;52.650;8.116;2023-07-29T11:49:49;1.30;;;1.30;;
29534;SDS011;16475;52.650;8.116;2023-07-29T11:52:15;1.07;;;1.07;;
29534;SDS011;16475;52.650;8.116;2023-07-29T11:54:44;1.10;;;1.10;;
29534;SDS011;16475;52.650;8.116;2023-07-29T11:57:09;3.13;;;1.60;;
29534;SDS011;16475;52.650;8.116;2023-07-29T11:59:35;1.10;;;1.10;;
29534;SDS011;16475;52.650;8.116;2023-07-29T12:02:02;2.17;;;2.07;;
29534;SDS011;16475;52.650;8.116;2023-07-29T12:04:31;1.30;;;1.30;;
29534;SDS011;16475;52.650;8.116;2023-07-29T12:06:57;1.60;;;1.40;;
29534;SDS011;16475;52.650;8.116;2023-07-29T12:09:23;1.53;;;1.43;;
29534;SDS011;16475;52.650;8.116;2023-07-29T12:11:49;1.00;;;1.00;;
29534;SDS011;16475;52.650;8.116;2023-07-29T12:14:16;3.87;;;1.17;;
29534;SDS011;16475;52.650;8.116;2023-07-29T12:16:47;1.37;;;1.30;;
29534;SDS011;16475;52.650;8.116;2023-07-29T12:19:13;2.20;;;2.10;;
29534;SDS011;16475;52.650;8.116;2023-07-29T12:21:40;7.60;;;1.50;;
29534;SDS011;16475;52.650;8.116;2023-07-29T12:24:06;1.07;;;1.00;;
29534;SDS011;16475;52.650;8.116;2023-07-29T12:26:32;1.10;;;1.10;;
29534;SDS011;16475;52.650;8.116;2023-07-29T12:28:57;1.40;;;1.30;;
29534;SDS011;16475;52.650;8.116;2023-07-29T12:31:32;4.73;;;1.10;;
29534;SDS011;16475;52.650;8.116;2023-07-29T12:33:58;16.53;;;1.53;;
29534;SDS011;16475;52.650;8.116;2023-07-29T12:36:27;1.67;;;1.10;;
29534;SDS011;16475;52.650;8.116;2023-07-29T12:39:05;1.50;;;1.40;;
29534;SDS011;16475;52.650;8.116;2023-07-29T12:41:30;1.30;;;1.30;;
29534;SDS011;16475;52.650;8.116;2023-07-29T12:43:56;2.40;;;1.17;;
29534;SDS011;16475;52.650;8.116;2023-07-29T12:46:21;0.93;;;0.93;;
29534;SDS011;16475;52.650;8.116;2023-07-29T12:48:46;1.40;;;1.40;;
29534;SDS011;16475;52.650;8.116;2023-07-29T12:51:12;2.50;;;1.67;;
29534;SDS011;16475;52.650;8.116;2023-07-29T12:53:38;1.83;;;1.40;;
29534;SDS011;16475;52.650;8.116;2023-07-29T12:56:04;1.90;;;1.80;;
29534;SDS011;16475;52.650;8.116;2023-07-29T12:58:31;2.37;;;1.40;;
29534;SDS011;16475;52.650;8.116;2023-07-29T13:00:56;1.63;;;1.53;;
29534;SDS011;16475;52.650;8.116;2023-07-29T13:03:22;4.10;;;1.53;;
29534;SDS011;16475;52.650;8.116;2023-07-29T13:05:47;0.93;;;0.93;;
29534;SDS011;16475;52.650;8.116;2023-07-29T13:08:12;1.20;;;1.10;;
29534;SDS011;16475;52.650;8.116;2023-07-29T13:10:38;1.33;;;1.23;;
29534;SDS011;16475;52.650;8.116;2023-07-29T13:13:03;3.00;;;1.70;;
29534;SDS011;16475;52.650;8.116;2023-07-29T13:15:29;5.90;;;1.57;;
29534;SDS011;16475;52.650;8.116;2023-07-29T13:17:54;1.13;;;1.13;;
29534;SDS011;16475;52.650;8.116;2023-07-29T13:20:20;4.27;;;1.60;;
29534;SDS011;16475;52.650;8.116;2023-07-29T13:22:45;1.37;;;1.27;;
29534;SDS011;16475;52.650;8.116;2023-07-29T13:25:10;1.40;;;1.40;;
29534;SDS011;16475;52.650;8.116;2023-07-29T13:27:36;7.50;;;1.93;;
29534;SDS011;16475;52.650;8.116;2023-07-29T13:30:02;2.37;;;1.60;;
29534;SDS011;16475;52.650;8.116;2023-07-29T13:32:27;1.20;;;1.20;;
29534;SDS011;16475;52.650;8.116;2023-07-29T13:34:52;1.73;;;1.63;;
29534;SDS011;16475;52.650;8.116;2023-07-29T13:37:18;7.00;;;1.43;;
29534;SDS011;16475;52.650;8.116;2023-07-29T13:39:43;1.43;;;1.33;;
29534;SDS011;16475;52.650;8.116;2023-07-29T13:42:09;1.43;;;1.33;;
29534;SDS011;16475;52.650;8.116;2023-07-29T13:44:34;1.60;;;1.50;;
29534;SDS011;16475;52.650;8.116;2023-07-29T13:46:59;1.30;;;1.20;;
29534;SDS011;16475;52.650;8.116;2023-07-29T13:49:25;2.10;;;1.53;;
29534;SDS011;16475;52.650;8.116;2023-07-29T13:51:50;4.73;;;2.40;;
29534;SDS011;16475;52.650;8.116;2023-07-29T13:54:15;4.53;;;1.20;;
29534;SDS011;16475;52.650;8.116;2023-07-29T13:56:41;1.40;;;1.30;;
29534;SDS011;16475;52.650;8.116;2023-07-29T13:59:06;1.90;;;1.53;;
29534;SDS011;16475;52.650;8.116;2023-07-29T14:01:32;4.53;;;1.47;;
29534;SDS011;16475;52.650;8.116;2023-07-29T14:03:57;1.47;;;1.47;;
29534;SDS011;16475;52.650;8.116;2023-07-29T14:06:23;16.80;;;2.10;;
29534;SDS011;16475;52.650;8.116;2023-07-29T14:08:48;4.30;;;1.33;;
29534;SDS011;16475;52.650;8.116;2023-07-29T14:11:13;1.70;;;1.60;;
29534;SDS011;16475;52.650;8.116;2023-07-29T14:13:38;2.10;;;1.60;;
29534;SDS011;16475;52.650;8.116;2023-07-29T14:16:04;1.50;;;1.40;;
29534;SDS011;16475;52.650;8.116;2023-07-29T14:18:30;2.40;;;1.63;;
29534;SDS011;16475;52.650;8.116;2023-07-29T14:20:55;1.47;;;1.37;;
29534;SDS011;16475;52.650;8.116;2023-07-29T14:23:20;1.53;;;1.53;;
29534;SDS011;16475;52.650;8.116;2023-07-29T14:25:46;20.77;;;1.57;;
29534;SDS011;16475;52.650;8.116;2023-07-29T14:28:12;1.60;;;1.50;;
29534;SDS011;16475;52.650;8.116;2023-07-29T14:30:38;2.00;;;1.57;;
29534;SDS011;16475;52.650;8.116;2023-07-29T14:33:05;0.90;;;0.90;;
29534;SDS011;16475;52.650;8.116;2023-07-29T14:35:31;1.20;;;1.20;;
29534;SDS011;16475;52.650;8.116;2023-07-29T14:37:56;1.60;;;1.50;;
29534;SDS011;16475;52.650;8.116;2023-07-29T14:40:21;1.97;;;1.77;;
29534;SDS011;16475;52.650;8.116;2023-07-29T14:42:47;1.73;;;1.67;;
29534;SDS011;16475;52.650;8.116;2023-07-29T14:45:12;1.00;;;1.00;;
29534;SDS011;16475;52.650;8.116;2023-07-29T14:47:37;1.27;;;1.27;;
29534;SDS011;16475;52.650;8.116;2023-07-29T14:50:03;1.73;;;1.33;;
29534;SDS011;16475;52.650;8.116;2023-07-29T14:52:29;1.10;;;1.10;;
29534;SDS011;16475;52.650;8.116;2023-07-29T14:54:54;1.50;;;1.50;;